createdAt,value
2022-08-12T00:01:19.598Z,97335.69
2022-08-12T00:04:27.202Z,97331.19
2022-08-12T00:07:13.487Z,97328.41
2022-08-12T00:09:59.836Z,97334.34
2022-08-12T00:12:45.300Z,97329.69
2022-08-12T00:15:35.794Z,97334.66
2022-08-12T00:18:22.909Z,97323.56
2022-08-12T00:21:08.675Z,97327.72
2022-08-12T00:23:55.113Z,97330.50
2022-08-12T00:26:41.223Z,97328.06
2022-08-12T00:29:28.818Z,97330.72
2022-08-12T00:32:34.172Z,97334.69
2022-08-12T00:35:20.685Z,97329.72
2022-08-12T00:38:10.204Z,97332.38
2022-08-12T00:40:57.986Z,97334.03
2022-08-12T00:43:27.393Z,97331.19
2022-08-12T00:46:14.844Z,97336.19
2022-08-12T00:48:42.600Z,97338.50
2022-08-12T00:51:09.839Z,97341.97
2022-08-12T00:53:39.103Z,97342.97
2022-08-12T00:56:07.467Z,97333.03
2022-08-12T00:58:35.104Z,97335.38
2022-08-12T01:01:08.010Z,97334.38
2022-08-12T01:03:59.648Z,97330.41
2022-08-12T01:06:51.100Z,97332.19
2022-08-12T01:09:41.593Z,97328.22
2022-08-12T01:12:12.513Z,97330.72
2022-08-12T01:14:41.228Z,97318.44
2022-08-12T01:17:08.875Z,97324.75
2022-08-12T01:19:36.498Z,97326.38
2022-08-12T01:22:26.206Z,97327.06
2022-08-12T01:25:13.025Z,97312.47
2022-08-12T01:27:43.102Z,97307.03
2022-08-12T01:30:13.870Z,97308.50
2022-08-12T01:32:42.395Z,97305.19
2022-08-12T01:35:13.560Z,97300.88
2022-08-12T01:37:55.479Z,97306.34
2022-08-12T01:40:33.742Z,97308.84
2022-08-12T01:43:10.608Z,97307.19
2022-08-12T01:45:47.729Z,97305.50
2022-08-12T01:48:39.193Z,97305.38
2022-08-12T01:52:21.657Z,97300.88
2022-08-12T01:54:45.650Z,97299.56
2022-08-12T01:57:58.330Z,97298.22
2022-08-12T02:00:17.049Z,97304.38
2022-08-12T02:03:13.123Z,97304.88
2022-08-12T02:06:32.621Z,97306.84
2022-08-12T02:09:23.882Z,97307.16
2022-08-12T02:12:35.234Z,97299.84
2022-08-12T02:15:24.020Z,97299.72
2022-08-12T02:18:26.390Z,97308.47
2022-08-12T02:21:07.366Z,97306.16
2022-08-12T02:23:37.273Z,97307.06
2022-08-12T02:26:08.551Z,97306.72
2022-08-12T02:28:39.166Z,97305.38
2022-08-12T02:31:09.284Z,97310.84
2022-08-12T02:33:38.221Z,97304.41
2022-08-12T02:36:25.982Z,97311.91
2022-08-12T02:38:57.893Z,97316.38
2022-08-12T02:41:33.791Z,97310.75
2022-08-12T02:44:15.770Z,97292.81
2022-08-12T02:46:55.479Z,97317.34
2022-08-12T02:49:25.857Z,97313.03
2022-08-12T02:51:55.299Z,97310.53
2022-08-12T02:54:25.397Z,97312.03
2022-08-12T02:56:52.896Z,97314.69
2022-08-12T02:59:24.753Z,97311.84
2022-08-12T03:01:56.571Z,97320.94
2022-08-12T03:04:47.000Z,97319.28
2022-08-12T03:07:56.504Z,97328.22
2022-08-12T03:10:36.699Z,97333.22
2022-08-12T03:13:08.639Z,97322.63
2022-08-12T03:15:36.822Z,97328.88
2022-08-12T03:18:26.229Z,97338.00
2022-08-12T03:20:58.450Z,97325.91
2022-08-12T03:23:29.830Z,97327.72
2022-08-12T03:26:02.729Z,97337.16
2022-08-12T03:28:51.661Z,97335.81
2022-08-12T03:31:21.860Z,97331.34
2022-08-12T03:34:01.482Z,97330.50
2022-08-12T03:36:31.556Z,97330.50
2022-08-12T03:39:16.184Z,97339.44
2022-08-12T03:41:59.497Z,97334.84
2022-08-12T03:44:58.260Z,97336.81
2022-08-12T03:47:49.980Z,97346.41
2022-08-12T03:50:36.271Z,97356.69
2022-08-12T03:53:30.553Z,97340.44
2022-08-12T03:56:16.248Z,97350.66
2022-08-12T03:59:02.211Z,97346.69
2022-08-12T04:01:29.573Z,97350.66
2022-08-12T04:03:57.949Z,97355.03
2022-08-12T04:06:35.556Z,97343.94
2022-08-12T04:09:15.803Z,97348.72
2022-08-12T04:12:04.425Z,97351.97
2022-08-12T04:14:33.165Z,97356.34
2022-08-12T04:17:01.327Z,97358.53
2022-08-12T04:19:29.566Z,97353.97
2022-08-12T04:22:01.278Z,97350.50
2022-08-12T04:24:35.600Z,97360.16
2022-08-12T04:27:06.043Z,97353.53
2022-08-12T04:30:29.821Z,97346.91
2022-08-12T04:32:22.084Z,97345.91
2022-08-12T04:34:50.361Z,97343.13
2022-08-12T04:37:17.648Z,97347.28
2022-08-12T04:39:46.414Z,97344.63
2022-08-12T04:42:14.358Z,97340.00
2022-08-12T04:44:42.598Z,97343.97
2022-08-12T04:47:14.471Z,97340.63
2022-08-12T04:49:44.265Z,97336.72
2022-08-12T04:52:11.666Z,97333.34
2022-08-12T04:54:39.050Z,97335.72
2022-08-12T04:57:10.071Z,97332.44
2022-08-12T04:59:46.906Z,97332.00
2022-08-12T05:02:20.198Z,97322.13
2022-08-12T05:04:51.230Z,97329.34
2022-08-12T05:07:18.667Z,97329.16
2022-08-12T05:10:00.824Z,97316.84
2022-08-12T05:12:38.366Z,97320.16
2022-08-12T05:15:19.242Z,97321.91
2022-08-12T05:18:00.258Z,97315.56
2022-08-12T05:20:29.726Z,97317.66
2022-08-12T05:23:17.926Z,97323.63
2022-08-12T05:25:47.003Z,97320.50
2022-08-12T05:28:15.092Z,97323.13
2022-08-12T05:30:43.627Z,97325.06
2022-08-12T05:33:12.871Z,97317.13
2022-08-12T05:35:43.621Z,97315.53
2022-08-12T05:38:34.420Z,97313.09
2022-08-12T05:41:05.703Z,97308.97
2022-08-12T05:43:35.837Z,97295.78
2022-08-12T05:46:03.198Z,97301.31
2022-08-12T05:48:31.282Z,97297.78
2022-08-12T05:50:58.528Z,97313.81
2022-08-12T05:53:25.641Z,97301.78
2022-08-12T05:55:55.578Z,97308.09
2022-08-12T05:58:22.749Z,97302.38
2022-08-12T06:00:49.839Z,97289.00
2022-08-12T06:03:19.378Z,97292.81
2022-08-12T06:05:54.474Z,97281.69
2022-08-12T06:08:24.999Z,97287.38
2022-08-12T06:10:52.822Z,97283.16
2022-08-12T06:13:28.205Z,97282.44
2022-08-12T06:16:10.138Z,97274.06
2022-08-12T06:18:40.337Z,97276.88
2022-08-12T06:21:12.995Z,97265.88
2022-08-12T06:23:42.733Z,97272.34
2022-08-12T06:26:13.187Z,97269.31
2022-08-12T06:28:41.060Z,97264.38
2022-08-12T06:31:25.297Z,97271.66
2022-08-12T06:34:57.969Z,97264.09
2022-08-12T06:36:42.945Z,97256.44
2022-08-12T06:39:15.011Z,97256.91
2022-08-12T06:42:05.096Z,97253.19
2022-08-12T06:44:50.752Z,97254.66
2022-08-12T06:47:19.991Z,97247.59
2022-08-12T06:49:48.814Z,97249.78
2022-08-12T06:52:17.492Z,97246.00
2022-08-12T06:54:46.297Z,97250.91
2022-08-12T06:58:06.589Z,97246.69
2022-08-12T07:00:00.698Z,97252.81
2022-08-12T07:02:27.996Z,97243.69
2022-08-12T07:04:55.023Z,97252.69
2022-08-12T07:07:22.183Z,97240.66
2022-08-12T07:10:04.004Z,97241.63
2022-08-12T07:12:34.736Z,97238.44
2022-08-12T07:15:02.442Z,97242.91
2022-08-12T07:17:36.732Z,97241.28
2022-08-12T07:20:29.916Z,97234.94
2022-08-12T07:22:59.128Z,97236.38
2022-08-12T07:25:41.179Z,97239.25
2022-08-12T07:28:18.224Z,97228.72
2022-08-12T07:30:49.593Z,97239.31
2022-08-12T07:33:19.439Z,97238.75
2022-08-12T07:35:48.436Z,97239.47
2022-08-12T07:38:33.958Z,97234.78
2022-08-12T07:41:03.895Z,97229.66
2022-08-12T07:43:33.101Z,97232.47
2022-08-12T07:46:01.010Z,97230.84
2022-08-12T07:48:28.199Z,97233.38
2022-08-12T07:50:55.610Z,97225.97
2022-08-12T07:53:22.863Z,97238.75
2022-08-12T07:55:49.856Z,97228.69
2022-08-12T07:58:17.131Z,97229.28
2022-08-12T08:00:45.008Z,97223.78
2022-08-12T08:03:13.656Z,97227.50
2022-08-12T08:05:46.645Z,97220.44
2022-08-12T08:08:18.814Z,97221.22
2022-08-12T08:11:23.852Z,97220.50
2022-08-12T08:13:51.032Z,97220.03
2022-08-12T08:16:18.008Z,97212.72
2022-08-12T08:18:44.851Z,97217.09
2022-08-12T08:21:12.010Z,97209.25
2022-08-12T08:23:59.777Z,97214.06
2022-08-12T08:26:32.456Z,97221.31
2022-08-12T08:28:59.980Z,97212.63
2022-08-12T08:31:27.049Z,97213.16
2022-08-12T08:34:09.264Z,97215.91
2022-08-12T08:36:42.377Z,97208.56
2022-08-12T08:39:14.588Z,97214.41
2022-08-12T08:42:16.294Z,97211.28
2022-08-12T08:44:46.848Z,97202.03
2022-08-12T08:47:16.795Z,97197.41
2022-08-12T08:49:43.923Z,97205.50
2022-08-12T08:52:11.841Z,97197.06
2022-08-12T08:54:39.189Z,97194.44
2022-08-12T08:57:08.684Z,97197.16
2022-08-12T08:59:36.626Z,97190.19
2022-08-12T09:02:04.740Z,97192.78
2022-08-12T09:05:12.800Z,97187.19
2022-08-12T09:07:51.086Z,97188.25
2022-08-12T09:13:22.836Z,97164.41
2022-08-12T09:15:55.940Z,97173.16
2022-08-12T09:18:30.904Z,97164.97
2022-08-12T09:21:02.251Z,97171.50
2022-08-12T09:23:59.063Z,97160.09
2022-08-12T09:26:30.035Z,97159.50
2022-08-12T09:28:58.506Z,97163.84
2022-08-12T09:32:03.131Z,97163.84
2022-08-12T09:34:25.390Z,97159.00
2022-08-12T09:37:02.806Z,97158.47
2022-08-12T09:40:05.758Z,97147.09
2022-08-12T09:43:15.542Z,97155.75
2022-08-12T09:46:06.782Z,97147.09
2022-08-12T09:48:35.139Z,97143.03
2022-08-12T09:51:04.806Z,97142.47
2022-08-12T09:54:05.650Z,97139.22
2022-08-12T09:57:01.729Z,97139.22
2022-08-12T10:00:15.621Z,97129.41
2022-08-12T10:02:52.880Z,97135.69
2022-08-12T10:05:00.824Z,97123.69
2022-08-12T10:07:40.343Z,97133.50
2022-08-12T10:10:22.655Z,97134.56
2022-08-12T10:13:35.294Z,97131.25
2022-08-12T10:16:22.572Z,97126.31
2022-08-12T10:19:01.700Z,97129.28
2022-08-12T10:21:37.961Z,97122.34
2022-08-12T10:24:07.648Z,97124.75
2022-08-12T10:26:54.752Z,97128.22
2022-08-12T10:30:02.784Z,97130.44
2022-08-12T10:32:43.800Z,97125.53
2022-08-12T10:35:14.913Z,97120.88
2022-08-12T10:38:38.104Z,97119.72
2022-08-12T10:40:33.779Z,97113.09
2022-08-12T10:43:20.212Z,97110.06
2022-08-12T10:45:58.260Z,97110.53
2022-08-12T10:48:34.286Z,97105.41
2022-08-12T10:52:02.763Z,97092.00
2022-08-12T10:54:00.515Z,97099.50
2022-08-12T10:56:34.633Z,97089.81
2022-08-12T10:59:05.770Z,97095.13
2022-08-12T11:04:20.472Z,97087.19
2022-08-12T11:04:39.335Z,97086.00
2022-08-12T11:08:36.753Z,97086.22
2022-08-12T11:10:01.471Z,97079.34
2022-08-12T11:12:54.658Z,97074.41
2022-08-12T11:15:33.402Z,97081.50
2022-08-12T11:18:11.842Z,97079.34
2022-08-12T11:20:44.860Z,97079.50
2022-08-12T11:23:24.638Z,97071.28
2022-08-12T11:26:05.415Z,97064.50
2022-08-12T11:28:37.677Z,97065.16
2022-08-12T11:31:12.033Z,97062.97
2022-08-12T11:34:04.172Z,97061.50
2022-08-12T11:36:30.758Z,97058.78
2022-08-12T11:38:58.369Z,97055.34
2022-08-12T11:41:32.905Z,97060.59
2022-08-12T11:44:30.716Z,97063.41
2022-08-12T11:46:51.324Z,97053.06
2022-08-12T11:49:26.931Z,97056.25
2022-08-12T11:52:02.477Z,97057.38
2022-08-12T11:54:30.731Z,97044.28
2022-08-12T11:57:03.026Z,97042.94
2022-08-12T12:02:36.540Z,97039.16
2022-08-12T12:05:04.104Z,97043.66
2022-08-12T12:08:38.047Z,97040.25
2022-08-12T12:10:25.260Z,97037.31
2022-08-12T12:12:53.999Z,97036.47
2022-08-12T12:15:24.874Z,97038.88
2022-08-12T12:17:55.001Z,97032.28
2022-08-12T12:20:26.088Z,97028.53
2022-08-12T12:22:57.910Z,97023.19
2022-08-12T12:26:06.310Z,97023.19
2022-08-12T12:28:36.914Z,97014.78
2022-08-12T12:31:02.124Z,97011.41
2022-08-12T12:33:46.230Z,97010.28
2022-08-12T12:36:24.067Z,96995.47
2022-08-12T12:38:55.270Z,97008.72
2022-08-12T12:42:40.673Z,97001.56
2022-08-12T12:44:13.310Z,96999.28
2022-08-12T12:46:52.519Z,97000.06
2022-08-12T12:49:26.282Z,96989.44
2022-08-12T12:52:18.694Z,96992.28
2022-08-12T12:54:53.105Z,96982.38
2022-08-12T12:57:21.452Z,96969.91
2022-08-12T13:00:15.616Z,96973.22
2022-08-12T13:02:55.788Z,96986.88
2022-08-12T13:05:27.999Z,96988.56
2022-08-12T13:08:00.761Z,96972.78
2022-08-12T13:10:36.800Z,96970.47
2022-08-12T13:14:08.879Z,96965.94
2022-08-12T13:15:52.643Z,96954.06
2022-08-12T13:18:20.535Z,96965.47
2022-08-12T13:20:59.538Z,96962.72
2022-08-12T13:23:36.536Z,96958.88
2022-08-12T13:26:05.354Z,96971.84
2022-08-12T13:28:32.917Z,96965.63
2022-08-12T13:31:00.996Z,96971.38
2022-08-12T13:34:32.317Z,96980.00
2022-08-12T13:36:18.084Z,96971.88
2022-08-12T13:38:54.367Z,96973.06
2022-08-12T13:41:34.535Z,96967.72
2022-08-12T13:44:10.622Z,96980.81
2022-08-12T13:46:39.099Z,96968.31
2022-08-12T13:49:07.958Z,96965.28
2022-08-12T13:51:40.725Z,96964.91
2022-08-12T13:54:13.867Z,96958.09
2022-08-12T13:56:41.503Z,96957.94
2022-08-12T13:59:20.720Z,96958.75
2022-08-12T14:01:56.648Z,96951.75
2022-08-12T14:04:24.122Z,96953.38
2022-08-12T14:06:51.988Z,96950.38
2022-08-12T14:09:19.997Z,96951.22
2022-08-12T14:11:58.436Z,96953.38
2022-08-12T14:14:31.671Z,96952.25
2022-08-12T14:17:05.573Z,96948.66
2022-08-12T14:19:35.936Z,96954.13
2022-08-12T14:22:10.748Z,96963.13
2022-08-12T14:24:40.908Z,96960.72
2022-08-12T14:27:10.762Z,96965.63
2022-08-12T14:30:06.192Z,96958.00
2022-08-12T14:32:35.558Z,96962.88
2022-08-12T14:35:09.235Z,96946.59
2022-08-12T14:37:56.236Z,96956.38
2022-08-12T14:40:29.853Z,96950.13
2022-08-12T14:42:59.010Z,96947.66
2022-08-12T14:45:44.231Z,96952.53
2022-08-12T14:48:18.823Z,96953.06
2022-08-12T14:52:15.962Z,96952.53
2022-08-12T14:59:56.912Z,96938.44
2022-08-12T15:02:21.173Z,96944.13
2022-08-12T15:04:56.269Z,96935.97
2022-08-12T15:07:33.868Z,96937.63
2022-08-12T15:10:12.665Z,96925.44
2022-08-12T15:12:40.802Z,96924.34
2022-08-12T15:15:10.474Z,96927.00
2022-08-12T15:17:39.544Z,96919.13
2022-08-12T15:20:30.870Z,96915.06
2022-08-12T15:22:57.881Z,96914.56
2022-08-12T15:25:26.217Z,96919.44
2022-08-12T15:28:03.781Z,96917.81
2022-08-12T15:30:37.126Z,96912.38
2022-08-12T15:33:12.902Z,96915.63
2022-08-12T15:35:50.480Z,96913.44
2022-08-12T15:38:22.255Z,96906.38
2022-08-12T15:40:53.496Z,96908.00
2022-08-12T15:44:16.178Z,96905.56
2022-08-12T15:46:36.539Z,96906.34
2022-08-12T15:49:17.028Z,96915.00
2022-08-12T15:51:58.350Z,96912.81
2022-08-12T15:54:35.212Z,96897.63
2022-08-12T15:57:08.039Z,96907.31
2022-08-12T16:00:04.225Z,96909.38
2022-08-12T16:02:29.425Z,96915.28
2022-08-12T16:04:56.848Z,96910.88
2022-08-12T16:07:30.228Z,96910.81
2022-08-12T16:10:05.466Z,96906.69
2022-08-12T16:12:37.583Z,96902.50
2022-08-12T16:15:08.419Z,96904.59
2022-08-12T16:18:18.915Z,96890.69
2022-08-12T16:20:48.819Z,96897.69
2022-08-12T16:23:51.117Z,96897.28
2022-08-12T16:26:15.282Z,96893.44
2022-08-12T16:28:47.477Z,96899.84
2022-08-12T16:31:23.005Z,96899.75
2022-08-12T16:33:59.982Z,96896.31
2022-08-12T16:36:30.759Z,96900.00
2022-08-12T16:39:01.347Z,96903.66
2022-08-12T16:41:37.894Z,96908.84
2022-08-12T16:44:08.282Z,96910.06
2022-08-12T16:46:36.489Z,96906.91
2022-08-12T16:49:13.473Z,96910.47
2022-08-12T16:51:46.937Z,96912.94
2022-08-12T16:54:17.025Z,96909.53
2022-08-12T16:56:54.502Z,96912.66
2022-08-12T16:59:52.981Z,96909.34
2022-08-12T17:02:18.054Z,96917.47
2022-08-12T17:05:03.340Z,96916.00
2022-08-12T17:07:36.479Z,96919.50
2022-08-12T17:10:12.834Z,96925.69
2022-08-12T17:12:40.483Z,96921.88
2022-08-12T17:15:51.390Z,96917.44
2022-08-12T17:18:39.054Z,96922.78
2022-08-12T17:20:50.063Z,96912.63
2022-08-12T17:23:47.956Z,96927.72
2022-08-12T17:26:16.876Z,96928.28
2022-08-12T17:28:52.219Z,96933.44
2022-08-12T17:31:59.661Z,96929.81
2022-08-12T17:34:31.421Z,96932.81
2022-08-12T17:37:01.752Z,96935.94
2022-08-12T17:40:12.698Z,96933.41
2022-08-12T17:42:32.488Z,96933.81
2022-08-12T17:45:17.254Z,96943.47
2022-08-12T17:48:01.958Z,96936.88
2022-08-12T17:50:38.787Z,96948.38
2022-08-12T17:53:07.974Z,96954.72
2022-08-12T17:55:43.118Z,96959.75
2022-08-12T17:58:14.572Z,96963.78
2022-08-12T18:00:47.671Z,96965.19
2022-08-12T18:04:05.886Z,96962.50
2022-08-12T18:06:14.228Z,96973.13
2022-08-12T18:08:53.770Z,96968.94
2022-08-12T18:12:03.965Z,96974.22
2022-08-12T18:14:30.112Z,96972.84
2022-08-12T18:17:00.306Z,96980.47
2022-08-12T18:20:03.770Z,96978.91
2022-08-12T18:22:22.117Z,96973.19
2022-08-12T18:25:05.079Z,96993.22
2022-08-12T18:27:43.889Z,96986.69
2022-08-12T18:30:20.478Z,96984.25
2022-08-12T18:33:04.991Z,96993.34
2022-08-12T18:35:47.474Z,96999.34
2022-08-12T18:38:24.541Z,96998.78
2022-08-12T18:41:21.445Z,97001.28
2022-08-12T18:44:03.016Z,96998.84
2022-08-12T18:46:57.494Z,97009.59
2022-08-12T18:49:38.747Z,97009.59
2022-08-12T18:52:11.743Z,97005.09
2022-08-12T18:54:54.880Z,97023.63
2022-08-12T18:58:07.508Z,97023.66
2022-08-12T19:00:22.303Z,97024.91
2022-08-12T19:02:55.956Z,97035.41
2022-08-12T19:05:53.142Z,97032.31
2022-08-12T19:08:14.394Z,97026.56
2022-08-12T19:10:50.231Z,97032.50
2022-08-12T19:13:37.839Z,97027.78
2022-08-12T19:16:11.269Z,97026.97
2022-08-12T19:18:44.696Z,97027.78
2022-08-12T19:21:16.636Z,97030.69
2022-08-12T19:24:04.662Z,97035.41
2022-08-12T19:26:36.182Z,97041.34
2022-08-12T19:29:05.695Z,97030.25
2022-08-12T19:31:57.474Z,97031.47
2022-08-12T19:38:02.584Z,97036.63
2022-08-12T19:40:31.233Z,97031.88
2022-08-12T19:43:02.281Z,97037.63
2022-08-12T19:45:48.765Z,97038.25
2022-08-12T19:48:20.960Z,97036.56
2022-08-12T19:51:09.378Z,97048.06
2022-08-12T19:53:57.656Z,97040.81
2022-08-12T19:56:29.783Z,97039.53
2022-08-12T19:59:19.347Z,97034.63
2022-08-12T20:02:02.648Z,97033.38
2022-08-12T20:04:37.566Z,97032.72
2022-08-12T20:07:23.636Z,97035.41
2022-08-12T20:09:56.967Z,97033.38
2022-08-12T20:12:31.682Z,97023.25
2022-08-12T20:15:05.370Z,97023.06
2022-08-12T20:17:36.314Z,97015.03
2022-08-12T20:20:21.219Z,97016.03
2022-08-12T20:22:56.080Z,97019.75
2022-08-12T20:25:51.967Z,97017.25
2022-08-12T20:28:12.522Z,97014.75
2022-08-12T20:30:53.077Z,97012.69
2022-08-12T20:33:32.246Z,97014.94
2022-08-12T20:36:14.468Z,97002.19
2022-08-12T20:38:47.146Z,97002.34
2022-08-12T20:41:17.366Z,97009.31
2022-08-12T20:43:47.459Z,97008.06
2022-08-12T20:46:15.225Z,97006.59
2022-08-12T20:48:44.457Z,97008.41
2022-08-12T20:51:15.954Z,97001.78
2022-08-12T20:53:54.311Z,97005.22
2022-08-12T20:56:34.968Z,97002.94
2022-08-12T20:59:14.888Z,96999.88
2022-08-12T21:01:48.809Z,96998.47
2022-08-12T21:04:36.492Z,97002.91
2022-08-12T21:07:09.709Z,97008.44
2022-08-12T21:09:41.974Z,97009.47
2022-08-12T21:12:31.471Z,97013.41
2022-08-12T21:15:24.175Z,97019.50
2022-08-12T21:18:09.322Z,97007.22
2022-08-12T21:20:46.054Z,97010.53
2022-08-12T21:23:14.161Z,97008.25
2022-08-12T21:25:46.710Z,97018.09
2022-08-12T21:28:14.877Z,97015.41
2022-08-12T21:31:10.664Z,97005.59
2022-08-12T21:33:32.213Z,97000.19
2022-08-12T21:36:22.723Z,97002.78
2022-08-12T21:39:20.840Z,97002.56
2022-08-12T21:41:56.103Z,96994.66
2022-08-12T21:45:43.615Z,96990.53
2022-08-12T21:47:21.485Z,96985.56
2022-08-12T21:50:03.476Z,96991.28
2022-08-12T21:52:41.947Z,96992.28
2022-08-12T21:55:18.885Z,96993.56
2022-08-12T21:57:54.820Z,96992.59
2022-08-12T22:00:32.284Z,96990.91
2022-08-12T22:04:01.599Z,96992.16
2022-08-12T22:06:30.328Z,96991.22
2022-08-12T22:09:15.788Z,97000.97
2022-08-12T22:11:56.706Z,97003.78
2022-08-12T22:14:29.410Z,97000.06
2022-08-12T22:16:57.940Z,96995.56
2022-08-12T22:19:25.171Z,97002.16
2022-08-12T22:21:56.294Z,96998.47
2022-08-12T22:24:30.557Z,96993.16
2022-08-12T22:27:17.923Z,96991.50
2022-08-12T22:30:15.990Z,96988.19
2022-08-12T22:32:49.923Z,96989.88
2022-08-12T22:35:56.102Z,96984.34
2022-08-12T22:38:29.148Z,96973.84
2022-08-12T22:41:28.697Z,96976.88
2022-08-12T22:44:17.060Z,96970.44
2022-08-12T22:46:54.254Z,96968.72
2022-08-12T22:49:48.878Z,96978.44
2022-08-12T22:52:22.669Z,96965.13
2022-08-12T22:55:02.949Z,96973.00
2022-08-12T22:57:49.468Z,96975.03
2022-08-12T23:00:24.464Z,96971.78
2022-08-12T23:02:56.670Z,96969.09
2022-08-12T23:05:57.147Z,96970.44
2022-08-12T23:08:13.906Z,96973.50
2022-08-12T23:10:46.237Z,96962.22
2022-08-12T23:13:43.921Z,96964.31
2022-08-12T23:16:27.777Z,96960.66
2022-08-12T23:19:01.672Z,96957.13
2022-08-12T23:22:03.595Z,96962.66
2022-08-12T23:24:35.007Z,96949.81
2022-08-12T23:27:22.278Z,96957.78
2022-08-12T23:30:17.360Z,96950.47
2022-08-12T23:32:37.309Z,96945.56
2022-08-12T23:35:07.423Z,96945.13
2022-08-12T23:37:47.516Z,96950.00
2022-08-12T23:40:22.217Z,96939.91
2022-08-12T23:42:52.321Z,96938.72
2022-08-12T23:45:30.877Z,96937.66
2022-08-12T23:48:02.606Z,96940.41
2022-08-12T23:50:33.918Z,96930.03
2022-08-12T23:53:05.791Z,96935.91
2022-08-12T23:55:41.032Z,96930.78
2022-08-12T23:58:20.749Z,96918.25
